Hornsby, TN (38044)

3:01 AM CDT on March 28, 2017 (GMT -0500)
odie home station | | Change Station
Active Advisory: Dense Fog Advisory

Elev 440 ft 35.29 °N, 89.02 °W | Updated 1 second ago

Overcast
Overcast
55.6 °F
Feels Like 55.6 °F
N
0.0
Wind Variable Wind from SE
Gusts 0.0 mph

Today
High -- | Low -- °F
--% Chance of Precip.
Yesterday
High -- | Low -- °F
Precip. -- in
Pressure 29.90 in
Visibility 7.0 miles
Clouds Mostly Cloudy 4800 ft
Mostly Cloudy 5500 ft
Mostly Cloudy 6500 ft
Dew Point 54 °F
Humidity 94%
Rainfall 0.00 in
Snow Depth Not available.
6:47 AM 7:13 PM
New Moon, 0% visible
METAR KCRX 280755Z AUTO 32003KT 7SM BKN048 BKN055 BKN065 16/15 A2990 RMK AO2
Pressure 29.90 in
Visibility 7.0 miles
Clouds Mostly Cloudy 4800 ft
Mostly Cloudy 5500 ft
Mostly Cloudy 6500 ft
Dew Point 54 °F
Humidity 94%
Rainfall 0.00 in
Snow Depth Not available.
6:47 AM 7:13 PM
New Moon, 0% visible
METAR KCRX 280755Z AUTO 32003KT 7SM BKN048 BKN055 BKN065 16/15 A2990 RMK AO2

Get Your Daily Forecast Email!

Thanks for signing up!

Be on the lookout for a verification email in your inbox.

You'll start receiving severe weather alerts in your inbox..

×

10-Day Weather Forecast

Almanac

Astronomy

Mar. 28, 2017 Rise Set
Actual Time
Civil Twilight
Nautical Twilight
Astronomical Twilight
Moon
Length of Visible Light
Length of Day
Tomorrow will be .
, % of the Moon is Illuminated

Today's Extremes

State Highs State Lows

Community

WunderPhotos

Upload Photos

1,962,540 photos uploaded!

WunderBlog® & News

Nearby

Air Quality

  Air Quality AQ Index Pollutant
Not available.

Snow Depth

Station Depth Elevation

Earthquake Activity

City Distance Mag. Time & Date
Minimum magnitude displayed is 2.5.

Earthquake Activity

City Distance Mag. Time & Date
Minimum magnitude displayed is 2.5.

Coastal Water Temperatures

Place Temperature

Stations

Nearby Weather Stations

Station Location Temp. Windchill Dew Point Humidity Wind Precip. Elev Updated Type
                   

Watches & Warnings

Dense Fog Advisory
Issued: 12:40 AM CDT Mar. 28, 2017 – National Weather Service

... Dense fog advisory in effect until 9 am CDT this morning...

The National Weather Service in Memphis has issued a dense fog
advisory, which is in effect until 9 am CDT this morning.

* Visibility... a quarter mile or less

* timing... through 9 am CDT

* impacts... if driving... slow down... use your low beam headlights... and
leave plenty of distance ahead of you.

Precautionary/preparedness actions...

A dense fog advisory means visibilities will frequently be
reduced to less than one quarter mile. If driving... slow down...
use your headlights... and leave plenty of distance ahead of you.



Krm